sensor_id;sensor_type;location;lat;lon;timestamp;P1;durP1;ratioP1;P2;durP2;ratioP2
65368;SDS011;51970;53.484;49.488;2022-07-29T00:00:09;15.25;;;5.85;;
65368;SDS011;51970;53.484;49.488;2022-07-29T00:02:36;11.27;;;5.43;;
65368;SDS011;51970;53.484;49.488;2022-07-29T00:05:02;10.85;;;5.05;;
65368;SDS011;51970;53.484;49.488;2022-07-29T00:07:29;12.18;;;5.57;;
65368;SDS011;51970;53.484;49.488;2022-07-29T00:09:55;14.00;;;5.40;;
65368;SDS011;51970;53.484;49.488;2022-07-29T00:12:23;13.40;;;5.50;;
65368;SDS011;51970;53.484;49.488;2022-07-29T00:14:50;13.93;;;5.32;;
65368;SDS011;51970;53.484;49.488;2022-07-29T00:17:16;12.70;;;5.45;;
65368;SDS011;51970;53.484;49.488;2022-07-29T00:19:42;17.75;;;5.82;;
65368;SDS011;51970;53.484;49.488;2022-07-29T00:22:08;16.90;;;5.88;;
65368;SDS011;51970;53.484;49.488;2022-07-29T00:24:34;14.35;;;5.93;;
65368;SDS011;51970;53.484;49.488;2022-07-29T00:27:00;15.07;;;6.10;;
65368;SDS011;51970;53.484;49.488;2022-07-29T00:29:26;13.63;;;5.82;;
65368;SDS011;51970;53.484;49.488;2022-07-29T00:31:52;19.33;;;6.07;;
65368;SDS011;51970;53.484;49.488;2022-07-29T00:34:18;12.73;;;6.00;;
65368;SDS011;51970;53.484;49.488;2022-07-29T00:37:02;15.10;;;6.47;;
65368;SDS011;51970;53.484;49.488;2022-07-29T00:39:29;13.45;;;6.63;;
65368;SDS011;51970;53.484;49.488;2022-07-29T00:41:55;12.43;;;6.28;;
65368;SDS011;51970;53.484;49.488;2022-07-29T00:44:21;13.93;;;6.32;;
65368;SDS011;51970;53.484;49.488;2022-07-29T00:46:47;16.73;;;6.03;;
65368;SDS011;51970;53.484;49.488;2022-07-29T00:49:13;14.52;;;6.15;;
65368;SDS011;51970;53.484;49.488;2022-07-29T00:51:39;15.80;;;6.78;;
65368;SDS011;51970;53.484;49.488;2022-07-29T00:54:06;17.50;;;6.35;;
65368;SDS011;51970;53.484;49.488;2022-07-29T00:56:33;20.10;;;6.40;;
65368;SDS011;51970;53.484;49.488;2022-07-29T00:58:59;15.82;;;7.30;;
65368;SDS011;51970;53.484;49.488;2022-07-29T01:01:26;11.93;;;5.88;;
65368;SDS011;51970;53.484;49.488;2022-07-29T01:03:52;13.65;;;5.55;;
65368;SDS011;51970;53.484;49.488;2022-07-29T01:06:19;15.20;;;6.25;;
65368;SDS011;51970;53.484;49.488;2022-07-29T01:08:45;15.82;;;6.32;;
65368;SDS011;51970;53.484;49.488;2022-07-29T01:11:14;14.45;;;5.95;;
65368;SDS011;51970;53.484;49.488;2022-07-29T01:13:42;13.88;;;5.05;;
65368;SDS011;51970;53.484;49.488;2022-07-29T01:16:11;15.15;;;6.07;;
65368;SDS011;51970;53.484;49.488;2022-07-29T01:18:45;17.23;;;5.78;;
65368;SDS011;51970;53.484;49.488;2022-07-29T01:24:18;11.38;;;5.78;;
65368;SDS011;51970;53.484;49.488;2022-07-29T01:26:59;17.23;;;6.65;;
65368;SDS011;51970;53.484;49.488;2022-07-29T01:29:55;11.98;;;6.45;;
65368;SDS011;51970;53.484;49.488;2022-07-29T01:32:31;14.73;;;5.50;;
65368;SDS011;51970;53.484;49.488;2022-07-29T01:35:02;14.75;;;6.38;;
65368;SDS011;51970;53.484;49.488;2022-07-29T01:40:57;15.48;;;5.57;;
65368;SDS011;51970;53.484;49.488;2022-07-29T01:43:18;12.90;;;5.55;;
65368;SDS011;51970;53.484;49.488;2022-07-29T01:46:02;13.23;;;6.38;;
65368;SDS011;51970;53.484;49.488;2022-07-29T01:48:42;11.88;;;5.88;;
65368;SDS011;51970;53.484;49.488;2022-07-29T01:51:20;15.90;;;7.15;;
65368;SDS011;51970;53.484;49.488;2022-07-29T01:54:04;12.90;;;6.78;;
65368;SDS011;51970;53.484;49.488;2022-07-29T01:56:37;14.30;;;6.97;;
65368;SDS011;51970;53.484;49.488;2022-07-29T01:59:04;16.88;;;6.90;;
65368;SDS011;51970;53.484;49.488;2022-07-29T02:01:33;19.10;;;9.43;;
65368;SDS011;51970;53.484;49.488;2022-07-29T02:04:02;22.98;;;11.77;;
65368;SDS011;51970;53.484;49.488;2022-07-29T02:06:29;27.48;;;14.57;;
65368;SDS011;51970;53.484;49.488;2022-07-29T02:08:57;31.13;;;13.52;;
65368;SDS011;51970;53.484;49.488;2022-07-29T02:11:25;24.63;;;10.75;;
65368;SDS011;51970;53.484;49.488;2022-07-29T02:13:52;19.25;;;9.52;;
65368;SDS011;51970;53.484;49.488;2022-07-29T02:16:21;14.60;;;5.68;;
65368;SDS011;51970;53.484;49.488;2022-07-29T02:18:49;9.45;;;5.53;;
65368;SDS011;51970;53.484;49.488;2022-07-29T02:21:19;10.52;;;5.57;;
65368;SDS011;51970;53.484;49.488;2022-07-29T02:23:49;16.88;;;6.38;;
65368;SDS011;51970;53.484;49.488;2022-07-29T02:26:22;12.77;;;7.45;;
65368;SDS011;51970;53.484;49.488;2022-07-29T02:28:52;17.02;;;7.35;;
65368;SDS011;51970;53.484;49.488;2022-07-29T02:31:21;17.23;;;7.03;;
65368;SDS011;51970;53.484;49.488;2022-07-29T02:33:49;20.38;;;6.93;;
65368;SDS011;51970;53.484;49.488;2022-07-29T02:36:17;14.65;;;6.10;;
65368;SDS011;51970;53.484;49.488;2022-07-29T02:38:44;13.43;;;6.97;;
65368;SDS011;51970;53.484;49.488;2022-07-29T02:41:20;11.10;;;6.95;;
65368;SDS011;51970;53.484;49.488;2022-07-29T02:43:50;17.98;;;6.63;;
65368;SDS011;51970;53.484;49.488;2022-07-29T02:46:27;15.50;;;6.10;;
65368;SDS011;51970;53.484;49.488;2022-07-29T02:49:02;14.88;;;6.30;;
65368;SDS011;51970;53.484;49.488;2022-07-29T02:51:45;17.95;;;5.90;;
65368;SDS011;51970;53.484;49.488;2022-07-29T02:54:19;20.05;;;6.70;;
65368;SDS011;51970;53.484;49.488;2022-07-29T02:57:06;15.30;;;6.20;;
65368;SDS011;51970;53.484;49.488;2022-07-29T02:59:37;17.20;;;6.53;;
65368;SDS011;51970;53.484;49.488;2022-07-29T03:02:07;18.20;;;6.43;;
65368;SDS011;51970;53.484;49.488;2022-07-29T03:04:35;21.20;;;7.78;;
65368;SDS011;51970;53.484;49.488;2022-07-29T03:07:03;19.00;;;6.88;;
65368;SDS011;51970;53.484;49.488;2022-07-29T03:09:30;11.82;;;6.65;;
65368;SDS011;51970;53.484;49.488;2022-07-29T03:11:56;27.23;;;7.75;;
65368;SDS011;51970;53.484;49.488;2022-07-29T03:14:23;23.33;;;7.65;;
65368;SDS011;51970;53.484;49.488;2022-07-29T03:16:50;15.80;;;7.38;;
65368;SDS011;51970;53.484;49.488;2022-07-29T03:19:17;12.43;;;5.85;;
65368;SDS011;51970;53.484;49.488;2022-07-29T03:21:45;10.65;;;5.95;;
65368;SDS011;51970;53.484;49.488;2022-07-29T03:24:23;16.25;;;5.50;;
65368;SDS011;51970;53.484;49.488;2022-07-29T03:26:54;10.27;;;5.63;;
65368;SDS011;51970;53.484;49.488;2022-07-29T03:29:21;10.05;;;4.70;;
65368;SDS011;51970;53.484;49.488;2022-07-29T03:31:47;14.02;;;5.40;;
65368;SDS011;51970;53.484;49.488;2022-07-29T03:34:13;20.52;;;5.55;;
65368;SDS011;51970;53.484;49.488;2022-07-29T03:36:39;25.13;;;5.57;;
65368;SDS011;51970;53.484;49.488;2022-07-29T03:39:05;15.30;;;5.93;;
65368;SDS011;51970;53.484;49.488;2022-07-29T03:41:33;15.82;;;5.75;;
65368;SDS011;51970;53.484;49.488;2022-07-29T03:44:01;26.05;;;5.72;;
65368;SDS011;51970;53.484;49.488;2022-07-29T03:46:29;13.82;;;5.55;;
65368;SDS011;51970;53.484;49.488;2022-07-29T03:48:58;14.90;;;5.25;;
65368;SDS011;51970;53.484;49.488;2022-07-29T03:51:26;13.00;;;5.63;;
65368;SDS011;51970;53.484;49.488;2022-07-29T03:53:52;11.48;;;5.35;;
65368;SDS011;51970;53.484;49.488;2022-07-29T03:56:20;15.68;;;5.18;;
65368;SDS011;51970;53.484;49.488;2022-07-29T03:58:51;8.65;;;5.07;;
65368;SDS011;51970;53.484;49.488;2022-07-29T04:01:18;9.52;;;4.57;;
65368;SDS011;51970;53.484;49.488;2022-07-29T04:03:45;11.57;;;5.82;;
65368;SDS011;51970;53.484;49.488;2022-07-29T04:06:11;13.73;;;6.10;;
65368;SDS011;51970;53.484;49.488;2022-07-29T04:08:37;12.45;;;4.75;;
65368;SDS011;51970;53.484;49.488;2022-07-29T04:11:04;12.00;;;4.72;;
65368;SDS011;51970;53.484;49.488;2022-07-29T04:13:31;10.13;;;5.63;;
65368;SDS011;51970;53.484;49.488;2022-07-29T04:15:58;16.08;;;5.32;;
65368;SDS011;51970;53.484;49.488;2022-07-29T04:18:24;12.00;;;5.82;;
65368;SDS011;51970;53.484;49.488;2022-07-29T04:20:51;13.98;;;5.55;;
65368;SDS011;51970;53.484;49.488;2022-07-29T04:23:17;14.70;;;5.70;;
65368;SDS011;51970;53.484;49.488;2022-07-29T04:25:43;10.40;;;5.18;;
65368;SDS011;51970;53.484;49.488;2022-07-29T04:28:09;17.95;;;5.07;;
65368;SDS011;51970;53.484;49.488;2022-07-29T04:30:36;13.05;;;5.90;;
65368;SDS011;51970;53.484;49.488;2022-07-29T04:33:04;18.20;;;5.70;;
65368;SDS011;51970;53.484;49.488;2022-07-29T04:35:33;11.52;;;5.97;;
65368;SDS011;51970;53.484;49.488;2022-07-29T04:38:01;20.08;;;5.32;;
65368;SDS011;51970;53.484;49.488;2022-07-29T04:40:28;19.85;;;5.80;;
65368;SDS011;51970;53.484;49.488;2022-07-29T04:42:54;13.32;;;5.20;;
65368;SDS011;51970;53.484;49.488;2022-07-29T04:45:20;11.77;;;5.45;;
65368;SDS011;51970;53.484;49.488;2022-07-29T04:47:46;16.75;;;4.80;;
65368;SDS011;51970;53.484;49.488;2022-07-29T04:50:12;10.50;;;6.95;;
65368;SDS011;51970;53.484;49.488;2022-07-29T04:52:38;15.05;;;5.65;;
65368;SDS011;51970;53.484;49.488;2022-07-29T04:55:04;30.23;;;6.78;;
65368;SDS011;51970;53.484;49.488;2022-07-29T04:57:31;14.40;;;5.57;;
65368;SDS011;51970;53.484;49.488;2022-07-29T04:59:57;14.95;;;4.95;;
65368;SDS011;51970;53.484;49.488;2022-07-29T05:02:23;14.40;;;5.50;;
65368;SDS011;51970;53.484;49.488;2022-07-29T05:04:49;9.55;;;5.03;;
65368;SDS011;51970;53.484;49.488;2022-07-29T05:07:15;9.50;;;4.88;;
65368;SDS011;51970;53.484;49.488;2022-07-29T05:09:42;16.15;;;5.15;;
65368;SDS011;51970;53.484;49.488;2022-07-29T05:12:08;11.30;;;5.13;;
65368;SDS011;51970;53.484;49.488;2022-07-29T05:14:35;10.45;;;4.68;;
65368;SDS011;51970;53.484;49.488;2022-07-29T05:17:01;13.38;;;5.25;;
65368;SDS011;51970;53.484;49.488;2022-07-29T05:19:26;13.20;;;5.72;;
65368;SDS011;51970;53.484;49.488;2022-07-29T05:21:52;17.40;;;4.90;;
65368;SDS011;51970;53.484;49.488;2022-07-29T05:24:18;14.98;;;5.55;;
65368;SDS011;51970;53.484;49.488;2022-07-29T05:26:44;13.48;;;5.35;;
65368;SDS011;51970;53.484;49.488;2022-07-29T05:29:10;13.38;;;4.95;;
65368;SDS011;51970;53.484;49.488;2022-07-29T05:31:36;18.52;;;5.65;;
65368;SDS011;51970;53.484;49.488;2022-07-29T05:34:02;11.60;;;4.72;;
65368;SDS011;51970;53.484;49.488;2022-07-29T05:36:28;13.38;;;6.32;;
65368;SDS011;51970;53.484;49.488;2022-07-29T05:38:54;17.25;;;6.18;;
65368;SDS011;51970;53.484;49.488;2022-07-29T05:41:20;19.52;;;5.50;;
65368;SDS011;51970;53.484;49.488;2022-07-29T05:43:46;12.90;;;5.35;;
65368;SDS011;51970;53.484;49.488;2022-07-29T05:46:12;15.85;;;7.13;;
65368;SDS011;51970;53.484;49.488;2022-07-29T05:48:39;12.07;;;5.18;;
65368;SDS011;51970;53.484;49.488;2022-07-29T05:51:05;11.75;;;5.43;;
65368;SDS011;51970;53.484;49.488;2022-07-29T05:53:31;21.23;;;5.55;;
65368;SDS011;51970;53.484;49.488;2022-07-29T05:55:57;10.52;;;5.53;;
65368;SDS011;51970;53.484;49.488;2022-07-29T05:58:23;10.75;;;4.95;;
65368;SDS011;51970;53.484;49.488;2022-07-29T06:00:50;15.50;;;5.57;;
65368;SDS011;51970;53.484;49.488;2022-07-29T06:03:16;10.80;;;5.78;;
65368;SDS011;51970;53.484;49.488;2022-07-29T06:05:42;11.68;;;5.38;;
65368;SDS011;51970;53.484;49.488;2022-07-29T06:08:08;12.88;;;5.38;;
65368;SDS011;51970;53.484;49.488;2022-07-29T06:10:34;13.20;;;5.07;;
65368;SDS011;51970;53.484;49.488;2022-07-29T06:13:01;12.98;;;5.13;;
65368;SDS011;51970;53.484;49.488;2022-07-29T06:15:27;8.10;;;3.75;;
65368;SDS011;51970;53.484;49.488;2022-07-29T06:17:53;14.55;;;5.28;;
65368;SDS011;51970;53.484;49.488;2022-07-29T06:20:19;12.25;;;5.10;;
65368;SDS011;51970;53.484;49.488;2022-07-29T06:22:45;9.38;;;4.75;;
65368;SDS011;51970;53.484;49.488;2022-07-29T06:25:11;10.50;;;5.53;;
65368;SDS011;51970;53.484;49.488;2022-07-29T06:27:37;16.33;;;5.90;;
65368;SDS011;51970;53.484;49.488;2022-07-29T06:30:03;11.52;;;5.53;;
65368;SDS011;51970;53.484;49.488;2022-07-29T06:32:32;12.07;;;4.10;;
65368;SDS011;51970;53.484;49.488;2022-07-29T06:34:59;12.20;;;6.60;;
65368;SDS011;51970;53.484;49.488;2022-07-29T06:37:25;13.35;;;5.82;;
65368;SDS011;51970;53.484;49.488;2022-07-29T06:39:51;13.75;;;4.50;;
65368;SDS011;51970;53.484;49.488;2022-07-29T06:42:36;10.75;;;4.75;;
65368;SDS011;51970;53.484;49.488;2022-07-29T06:45:03;17.88;;;4.15;;
65368;SDS011;51970;53.484;49.488;2022-07-29T06:47:29;14.75;;;4.68;;
65368;SDS011;51970;53.484;49.488;2022-07-29T06:49:55;11.45;;;4.45;;
65368;SDS011;51970;53.484;49.488;2022-07-29T06:52:21;14.13;;;5.00;;
65368;SDS011;51970;53.484;49.488;2022-07-29T06:54:47;24.48;;;4.60;;
65368;SDS011;51970;53.484;49.488;2022-07-29T06:57:13;12.13;;;5.05;;
65368;SDS011;51970;53.484;49.488;2022-07-29T06:59:39;13.43;;;5.57;;
65368;SDS011;51970;53.484;49.488;2022-07-29T07:02:05;9.32;;;4.07;;
65368;SDS011;51970;53.484;49.488;2022-07-29T07:04:32;8.15;;;3.85;;
65368;SDS011;51970;53.484;49.488;2022-07-29T07:06:58;13.77;;;4.75;;
65368;SDS011;51970;53.484;49.488;2022-07-29T07:09:25;11.68;;;7.20;;
65368;SDS011;51970;53.484;49.488;2022-07-29T07:11:51;15.00;;;3.97;;
65368;SDS011;51970;53.484;49.488;2022-07-29T07:14:17;14.35;;;4.60;;
65368;SDS011;51970;53.484;49.488;2022-07-29T07:16:43;11.60;;;4.57;;
65368;SDS011;51970;53.484;49.488;2022-07-29T07:19:09;11.55;;;4.78;;
65368;SDS011;51970;53.484;49.488;2022-07-29T07:21:35;16.55;;;4.60;;
65368;SDS011;51970;53.484;49.488;2022-07-29T07:24:01;16.05;;;4.93;;
65368;SDS011;51970;53.484;49.488;2022-07-29T07:26:27;11.82;;;4.55;;
65368;SDS011;51970;53.484;49.488;2022-07-29T07:28:54;9.77;;;4.78;;
65368;SDS011;51970;53.484;49.488;2022-07-29T07:31:20;12.85;;;4.38;;
65368;SDS011;51970;53.484;49.488;2022-07-29T07:33:46;9.50;;;4.72;;
65368;SDS011;51970;53.484;49.488;2022-07-29T07:36:12;12.60;;;4.72;;
65368;SDS011;51970;53.484;49.488;2022-07-29T07:38:38;14.98;;;5.60;;
65368;SDS011;51970;53.484;49.488;2022-07-29T07:41:05;12.23;;;4.68;;
65368;SDS011;51970;53.484;49.488;2022-07-29T07:43:31;12.73;;;5.18;;
65368;SDS011;51970;53.484;49.488;2022-07-29T07:45:57;12.75;;;5.65;;
65368;SDS011;51970;53.484;49.488;2022-07-29T07:48:23;24.67;;;6.15;;
65368;SDS011;51970;53.484;49.488;2022-07-29T07:50:49;11.10;;;5.05;;
65368;SDS011;51970;53.484;49.488;2022-07-29T07:53:16;15.48;;;5.80;;
65368;SDS011;51970;53.484;49.488;2022-07-29T07:55:42;18.95;;;5.90;;
65368;SDS011;51970;53.484;49.488;2022-07-29T07:58:09;11.85;;;4.68;;
65368;SDS011;51970;53.484;49.488;2022-07-29T08:00:35;15.95;;;5.70;;
65368;SDS011;51970;53.484;49.488;2022-07-29T08:03:02;12.65;;;5.43;;
65368;SDS011;51970;53.484;49.488;2022-07-29T08:05:28;17.73;;;7.15;;
65368;SDS011;51970;53.484;49.488;2022-07-29T08:07:54;16.50;;;6.10;;
65368;SDS011;51970;53.484;49.488;2022-07-29T08:10:20;20.13;;;6.22;;
65368;SDS011;51970;53.484;49.488;2022-07-29T08:13:05;13.90;;;5.35;;
65368;SDS011;51970;53.484;49.488;2022-07-29T08:15:33;14.63;;;5.25;;
65368;SDS011;51970;53.484;49.488;2022-07-29T08:18:00;13.57;;;5.25;;
65368;SDS011;51970;53.484;49.488;2022-07-29T08:20:27;14.65;;;6.30;;
65368;SDS011;51970;53.484;49.488;2022-07-29T08:22:53;12.32;;;5.55;;
65368;SDS011;51970;53.484;49.488;2022-07-29T08:25:19;12.02;;;5.95;;
65368;SDS011;51970;53.484;49.488;2022-07-29T08:27:46;11.48;;;5.97;;
65368;SDS011;51970;53.484;49.488;2022-07-29T08:30:12;20.90;;;6.88;;
65368;SDS011;51970;53.484;49.488;2022-07-29T08:32:39;9.75;;;5.57;;
65368;SDS011;51970;53.484;49.488;2022-07-29T08:35:05;18.92;;;5.38;;
65368;SDS011;51970;53.484;49.488;2022-07-29T08:37:31;13.63;;;5.45;;
65368;SDS011;51970;53.484;49.488;2022-07-29T08:39:57;15.57;;;5.82;;
65368;SDS011;51970;53.484;49.488;2022-07-29T08:42:23;12.77;;;7.85;;
65368;SDS011;51970;53.484;49.488;2022-07-29T08:44:50;12.25;;;5.10;;
65368;SDS011;51970;53.484;49.488;2022-07-29T08:47:16;13.05;;;7.85;;
65368;SDS011;51970;53.484;49.488;2022-07-29T08:49:42;14.05;;;6.80;;
65368;SDS011;51970;53.484;49.488;2022-07-29T08:52:10;11.45;;;6.32;;
65368;SDS011;51970;53.484;49.488;2022-07-29T08:54:38;12.73;;;5.55;;
65368;SDS011;51970;53.484;49.488;2022-07-29T08:57:08;9.77;;;5.43;;
65368;SDS011;51970;53.484;49.488;2022-07-29T08:59:37;17.35;;;5.63;;
65368;SDS011;51970;53.484;49.488;2022-07-29T09:02:06;11.15;;;5.50;;
65368;SDS011;51970;53.484;49.488;2022-07-29T09:04:44;16.88;;;6.15;;
65368;SDS011;51970;53.484;49.488;2022-07-29T09:07:11;12.55;;;6.65;;
65368;SDS011;51970;53.484;49.488;2022-07-29T09:09:40;10.95;;;5.63;;
65368;SDS011;51970;53.484;49.488;2022-07-29T09:12:08;10.90;;;5.60;;
65368;SDS011;51970;53.484;49.488;2022-07-29T09:14:39;15.15;;;5.63;;
65368;SDS011;51970;53.484;49.488;2022-07-29T09:17:06;17.83;;;5.28;;
65368;SDS011;51970;53.484;49.488;2022-07-29T09:19:34;11.38;;;6.18;;
65368;SDS011;51970;53.484;49.488;2022-07-29T09:22:05;15.10;;;6.60;;
65368;SDS011;51970;53.484;49.488;2022-07-29T09:27:10;34.30;;;6.53;;
65368;SDS011;51970;53.484;49.488;2022-07-29T09:32:23;16.13;;;6.28;;
65368;SDS011;51970;53.484;49.488;2022-07-29T09:34:57;14.23;;;5.60;;
65368;SDS011;51970;53.484;49.488;2022-07-29T09:37:45;15.13;;;6.35;;
65368;SDS011;51970;53.484;49.488;2022-07-29T09:40:16;14.10;;;5.78;;
65368;SDS011;51970;53.484;49.488;2022-07-29T09:42:43;19.10;;;6.72;;
65368;SDS011;51970;53.484;49.488;2022-07-29T09:45:10;12.25;;;6.38;;
65368;SDS011;51970;53.484;49.488;2022-07-29T09:47:41;12.55;;;5.50;;
65368;SDS011;51970;53.484;49.488;2022-07-29T09:50:12;10.13;;;5.90;;
65368;SDS011;51970;53.484;49.488;2022-07-29T09:52:49;14.23;;;6.47;;
65368;SDS011;51970;53.484;49.488;2022-07-29T09:55:16;11.80;;;5.60;;
65368;SDS011;51970;53.484;49.488;2022-07-29T09:57:43;14.85;;;6.22;;
65368;SDS011;51970;53.484;49.488;2022-07-29T10:00:11;13.43;;;6.80;;
65368;SDS011;51970;53.484;49.488;2022-07-29T10:02:42;13.10;;;6.22;;
65368;SDS011;51970;53.484;49.488;2022-07-29T10:05:16;13.25;;;5.75;;
65368;SDS011;51970;53.484;49.488;2022-07-29T10:07:51;16.58;;;6.18;;
65368;SDS011;51970;53.484;49.488;2022-07-29T10:12:51;15.43;;;6.78;;
65368;SDS011;51970;53.484;49.488;2022-07-29T10:15:22;30.35;;;8.35;;
65368;SDS011;51970;53.484;49.488;2022-07-29T10:17:50;15.50;;;6.20;;
65368;SDS011;51970;53.484;49.488;2022-07-29T10:20:18;16.27;;;6.35;;
65368;SDS011;51970;53.484;49.488;2022-07-29T10:22:46;22.17;;;5.80;;
65368;SDS011;51970;53.484;49.488;2022-07-29T10:25:13;11.70;;;5.97;;
65368;SDS011;51970;53.484;49.488;2022-07-29T10:27:41;16.02;;;7.25;;
65368;SDS011;51970;53.484;49.488;2022-07-29T10:30:11;13.07;;;6.30;;
65368;SDS011;51970;53.484;49.488;2022-07-29T10:32:40;20.70;;;6.40;;
65368;SDS011;51970;53.484;49.488;2022-07-29T10:43:58;11.18;;;5.72;;
65368;SDS011;51970;53.484;49.488;2022-07-29T10:46:34;22.70;;;6.45;;
65368;SDS011;51970;53.484;49.488;2022-07-29T10:52:05;15.88;;;8.18;;
65368;SDS011;51970;53.484;49.488;2022-07-29T10:57:19;14.55;;;5.63;;
65368;SDS011;51970;53.484;49.488;2022-07-29T11:05:02;14.10;;;5.85;;
65368;SDS011;51970;53.484;49.488;2022-07-29T11:07:32;11.35;;;5.90;;
65368;SDS011;51970;53.484;49.488;2022-07-29T11:23:21;18.58;;;7.43;;
65368;SDS011;51970;53.484;49.488;2022-07-29T11:31:20;15.65;;;7.03;;
65368;SDS011;51970;53.484;49.488;2022-07-29T11:39:39;13.82;;;6.68;;
65368;SDS011;51970;53.484;49.488;2022-07-29T11:47:32;20.17;;;7.68;;
65368;SDS011;51970;53.484;49.488;2022-07-29T11:50:00;13.25;;;7.07;;
65368;SDS011;51970;53.484;49.488;2022-07-29T11:52:40;15.30;;;7.05;;
65368;SDS011;51970;53.484;49.488;2022-07-29T11:55:15;21.85;;;6.85;;
65368;SDS011;51970;53.484;49.488;2022-07-29T11:57:48;15.93;;;8.02;;
65368;SDS011;51970;53.484;49.488;2022-07-29T12:00:23;13.00;;;8.50;;
65368;SDS011;51970;53.484;49.488;2022-07-29T12:02:52;16.17;;;7.75;;
65368;SDS011;51970;53.484;49.488;2022-07-29T12:05:18;14.70;;;6.72;;
65368;SDS011;51970;53.484;49.488;2022-07-29T12:07:46;17.95;;;7.07;;
65368;SDS011;51970;53.484;49.488;2022-07-29T12:10:13;13.00;;;6.75;;
65368;SDS011;51970;53.484;49.488;2022-07-29T12:12:40;13.25;;;7.15;;
65368;SDS011;51970;53.484;49.488;2022-07-29T12:15:12;14.23;;;7.13;;
65368;SDS011;51970;53.484;49.488;2022-07-29T12:17:45;20.60;;;8.23;;
65368;SDS011;51970;53.484;49.488;2022-07-29T12:20:12;14.55;;;7.32;;
65368;SDS011;51970;53.484;49.488;2022-07-29T12:22:41;16.33;;;8.00;;
65368;SDS011;51970;53.484;49.488;2022-07-29T12:25:13;14.77;;;8.23;;
65368;SDS011;51970;53.484;49.488;2022-07-29T12:27:41;14.68;;;7.47;;
65368;SDS011;51970;53.484;49.488;2022-07-29T12:30:15;14.23;;;6.60;;
65368;SDS011;51970;53.484;49.488;2022-07-29T12:32:42;20.92;;;8.02;;
65368;SDS011;51970;53.484;49.488;2022-07-29T12:35:11;16.98;;;7.30;;
65368;SDS011;51970;53.484;49.488;2022-07-29T12:37:40;15.10;;;6.68;;
65368;SDS011;51970;53.484;49.488;2022-07-29T12:40:08;14.02;;;6.47;;
65368;SDS011;51970;53.484;49.488;2022-07-29T12:42:40;17.25;;;7.38;;
65368;SDS011;51970;53.484;49.488;2022-07-29T12:45:06;15.77;;;6.68;;
65368;SDS011;51970;53.484;49.488;2022-07-29T12:47:33;14.23;;;6.97;;
65368;SDS011;51970;53.484;49.488;2022-07-29T12:50:15;14.65;;;7.38;;
65368;SDS011;51970;53.484;49.488;2022-07-29T12:52:43;22.55;;;6.88;;
65368;SDS011;51970;53.484;49.488;2022-07-29T12:55:10;18.98;;;9.77;;
65368;SDS011;51970;53.484;49.488;2022-07-29T12:57:54;13.75;;;7.13;;
65368;SDS011;51970;53.484;49.488;2022-07-29T13:00:23;21.95;;;7.10;;
65368;SDS011;51970;53.484;49.488;2022-07-29T13:02:56;18.88;;;7.90;;
65368;SDS011;51970;53.484;49.488;2022-07-29T13:05:23;20.48;;;6.65;;
65368;SDS011;51970;53.484;49.488;2022-07-29T13:08:10;18.75;;;7.47;;
65368;SDS011;51970;53.484;49.488;2022-07-29T13:10:37;13.05;;;7.75;;
65368;SDS011;51970;53.484;49.488;2022-07-29T13:13:10;13.30;;;6.70;;
65368;SDS011;51970;53.484;49.488;2022-07-29T13:15:38;16.25;;;7.07;;
65368;SDS011;51970;53.484;49.488;2022-07-29T13:18:26;13.32;;;7.10;;
65368;SDS011;51970;53.484;49.488;2022-07-29T13:20:53;13.88;;;7.13;;
65368;SDS011;51970;53.484;49.488;2022-07-29T13:23:19;13.88;;;7.53;;
65368;SDS011;51970;53.484;49.488;2022-07-29T13:25:45;15.00;;;7.22;;
65368;SDS011;51970;53.484;49.488;2022-07-29T13:28:11;18.77;;;7.65;;
65368;SDS011;51970;53.484;49.488;2022-07-29T13:30:39;14.02;;;7.38;;
65368;SDS011;51970;53.484;49.488;2022-07-29T13:33:06;12.75;;;6.80;;
65368;SDS011;51970;53.484;49.488;2022-07-29T13:35:32;16.88;;;7.13;;
65368;SDS011;51970;53.484;49.488;2022-07-29T13:37:58;18.75;;;7.00;;
65368;SDS011;51970;53.484;49.488;2022-07-29T13:40:24;15.48;;;7.68;;
65368;SDS011;51970;53.484;49.488;2022-07-29T13:42:51;13.48;;;7.97;;
65368;SDS011;51970;53.484;49.488;2022-07-29T13:45:17;16.05;;;7.03;;
65368;SDS011;51970;53.484;49.488;2022-07-29T13:47:43;13.80;;;6.57;;
65368;SDS011;51970;53.484;49.488;2022-07-29T13:50:09;15.60;;;9.15;;
65368;SDS011;51970;53.484;49.488;2022-07-29T13:52:36;15.00;;;7.93;;
65368;SDS011;51970;53.484;49.488;2022-07-29T13:55:03;14.00;;;8.02;;
65368;SDS011;51970;53.484;49.488;2022-07-29T13:57:30;16.00;;;8.88;;
65368;SDS011;51970;53.484;49.488;2022-07-29T13:59:57;13.32;;;7.15;;
65368;SDS011;51970;53.484;49.488;2022-07-29T14:02:23;24.38;;;9.20;;
65368;SDS011;51970;53.484;49.488;2022-07-29T14:04:49;16.20;;;8.00;;
65368;SDS011;51970;53.484;49.488;2022-07-29T14:07:15;12.65;;;6.85;;
65368;SDS011;51970;53.484;49.488;2022-07-29T14:09:41;16.02;;;7.70;;
65368;SDS011;51970;53.484;49.488;2022-07-29T14:12:08;14.50;;;8.57;;
65368;SDS011;51970;53.484;49.488;2022-07-29T14:14:34;16.23;;;7.55;;
65368;SDS011;51970;53.484;49.488;2022-07-29T14:17:02;21.60;;;8.55;;
65368;SDS011;51970;53.484;49.488;2022-07-29T14:19:28;16.73;;;7.57;;
65368;SDS011;51970;53.484;49.488;2022-07-29T14:21:54;16.15;;;8.18;;
65368;SDS011;51970;53.484;49.488;2022-07-29T14:24:20;18.52;;;10.45;;
65368;SDS011;51970;53.484;49.488;2022-07-29T14:26:46;13.70;;;7.70;;
65368;SDS011;51970;53.484;49.488;2022-07-29T14:29:12;14.77;;;7.13;;
65368;SDS011;51970;53.484;49.488;2022-07-29T14:31:38;19.17;;;8.02;;
65368;SDS011;51970;53.484;49.488;2022-07-29T14:34:04;13.02;;;7.53;;
65368;SDS011;51970;53.484;49.488;2022-07-29T14:36:30;16.30;;;8.07;;
65368;SDS011;51970;53.484;49.488;2022-07-29T14:38:56;13.90;;;7.15;;
65368;SDS011;51970;53.484;49.488;2022-07-29T14:41:22;12.65;;;7.00;;
65368;SDS011;51970;53.484;49.488;2022-07-29T14:43:48;13.77;;;6.72;;
65368;SDS011;51970;53.484;49.488;2022-07-29T14:46:14;13.95;;;6.45;;
65368;SDS011;51970;53.484;49.488;2022-07-29T14:48:40;13.30;;;7.20;;
65368;SDS011;51970;53.484;49.488;2022-07-29T14:51:06;13.23;;;7.80;;
65368;SDS011;51970;53.484;49.488;2022-07-29T14:53:32;15.98;;;8.30;;
65368;SDS011;51970;53.484;49.488;2022-07-29T14:55:58;15.40;;;6.78;;
65368;SDS011;51970;53.484;49.488;2022-07-29T14:58:24;14.43;;;7.20;;
65368;SDS011;51970;53.484;49.488;2022-07-29T15:00:50;14.93;;;7.55;;
65368;SDS011;51970;53.484;49.488;2022-07-29T15:03:16;13.23;;;7.03;;
65368;SDS011;51970;53.484;49.488;2022-07-29T15:05:42;15.15;;;7.60;;
65368;SDS011;51970;53.484;49.488;2022-07-29T15:08:08;15.18;;;7.70;;
65368;SDS011;51970;53.484;49.488;2022-07-29T15:10:34;13.43;;;7.30;;
65368;SDS011;51970;53.484;49.488;2022-07-29T15:13:00;15.10;;;8.52;;
65368;SDS011;51970;53.484;49.488;2022-07-29T15:15:26;14.15;;;8.10;;
65368;SDS011;51970;53.484;49.488;2022-07-29T15:17:52;15.75;;;7.00;;
65368;SDS011;51970;53.484;49.488;2022-07-29T15:20:18;18.02;;;7.50;;
65368;SDS011;51970;53.484;49.488;2022-07-29T15:22:44;11.32;;;6.70;;
65368;SDS011;51970;53.484;49.488;2022-07-29T15:25:10;14.40;;;8.10;;
65368;SDS011;51970;53.484;49.488;2022-07-29T15:27:36;14.73;;;7.65;;
65368;SDS011;51970;53.484;49.488;2022-07-29T15:30:02;19.00;;;8.30;;